createdAt,value
2018-11-14T00:00:54.892Z,97.50
2018-11-14T00:05:58.087Z,97.50
2018-11-14T00:11:01.307Z,97.50
2018-11-14T00:16:04.488Z,97.50
2018-11-14T00:21:07.724Z,97.50
2018-11-14T00:26:10.899Z,97.50
2018-11-14T00:31:14.100Z,97.50
2018-11-14T00:36:17.320Z,97.50
2018-11-14T00:41:20.483Z,97.50
2018-11-14T00:46:23.691Z,97.50
2018-11-14T00:51:26.866Z,97.50
2018-11-14T00:56:30.092Z,97.50
2018-11-14T01:01:33.390Z,97.50
2018-11-14T01:06:36.524Z,97.50
2018-11-14T01:11:39.823Z,97.50
2018-11-14T01:16:43.062Z,97.50
2018-11-14T01:21:46.737Z,97.50
2018-11-14T01:26:49.448Z,97.50
2018-11-14T01:31:52.638Z,97.50
2018-11-14T01:36:55.815Z,97.50
2018-11-14T01:41:59.018Z,97.50
2018-11-14T01:47:02.321Z,97.50
2018-11-14T01:52:05.652Z,97.50
2018-11-14T01:57:08.860Z,97.50
2018-11-14T02:02:12.068Z,97.50
2018-11-14T02:07:15.336Z,97.50
2018-11-14T02:12:18.853Z,97.50
2018-11-14T02:17:22.063Z,97.50
2018-11-14T02:22:25.299Z,97.50
2018-11-14T02:27:28.527Z,97.50
2018-11-14T02:32:31.739Z,97.50
2018-11-14T02:37:35.004Z,97.50
2018-11-14T02:42:38.390Z,97.50
2018-11-14T02:47:41.631Z,97.50
2018-11-14T02:52:44.884Z,97.50
2018-11-14T02:57:48.261Z,97.50
2018-11-14T03:02:51.478Z,97.50
2018-11-14T03:07:54.707Z,97.50
2018-11-14T03:12:57.908Z,97.50
2018-11-14T03:18:01.109Z,97.50
2018-11-14T03:23:04.324Z,97.50
2018-11-14T03:28:07.520Z,97.50
2018-11-14T03:33:10.709Z,97.50
2018-11-14T03:38:13.909Z,97.50
2018-11-14T03:43:17.083Z,97.50
2018-11-14T03:48:20.276Z,97.50
2018-11-14T03:53:23.469Z,97.50
2018-11-14T03:58:26.819Z,97.50
2018-11-14T04:03:29.853Z,97.50
2018-11-14T04:08:33.068Z,97.50
2018-11-14T04:13:36.248Z,97.50
2018-11-14T04:18:39.448Z,97.50
2018-11-14T04:23:47.373Z,97.50
2018-11-14T04:28:50.563Z,97.50
2018-11-14T04:33:53.763Z,97.50
2018-11-14T04:38:56.968Z,97.50
2018-11-14T04:44:00.191Z,97.50
2018-11-14T04:49:03.659Z,97.50
2018-11-14T04:54:06.874Z,97.50
2018-11-14T04:59:10.064Z,97.50
2018-11-14T05:04:13.276Z,97.50
2018-11-14T05:09:16.527Z,97.50
2018-11-14T05:14:19.755Z,97.50
2018-11-14T05:19:23.175Z,97.50
2018-11-14T05:24:26.484Z,97.50
2018-11-14T05:29:29.699Z,97.50
2018-11-14T05:34:33.019Z,97.50
2018-11-14T05:39:36.286Z,97.50
2018-11-14T05:44:39.471Z,97.50
2018-11-14T05:49:42.775Z,97.50
2018-11-14T05:54:46.004Z,97.50
2018-11-14T05:59:49.227Z,97.50
2018-11-14T06:04:52.446Z,97.50
2018-11-14T06:09:55.698Z,97.50
2018-11-14T06:14:58.935Z,97.50
2018-11-14T06:20:02.165Z,97.50
2018-11-14T06:25:33.907Z,97.50
2018-11-14T06:30:37.646Z,97.50
2018-11-14T06:35:40.891Z,97.50
2018-11-14T06:40:44.129Z,97.50
2018-11-14T06:45:47.350Z,97.50
2018-11-14T06:50:50.569Z,97.50
2018-11-14T06:55:53.829Z,97.50
2018-11-14T07:00:57.088Z,97.50
2018-11-14T07:06:00.439Z,97.50
2018-11-14T07:11:03.592Z,97.50
2018-11-14T07:16:06.721Z,97.50
2018-11-14T07:21:09.941Z,97.50
2018-11-14T07:26:13.163Z,97.50
2018-11-14T07:31:16.375Z,97.50
2018-11-14T07:36:19.611Z,97.50
2018-11-14T07:41:26.196Z,97.50
2018-11-14T07:46:30.516Z,97.50
2018-11-14T07:51:33.751Z,97.50
2018-11-14T07:56:36.978Z,97.50
2018-11-14T08:01:40.207Z,97.50
2018-11-14T08:06:43.824Z,95.30
2018-11-14T08:11:47.031Z,92.70
2018-11-14T08:16:50.331Z,91.60
2018-11-14T08:21:53.575Z,90.60
2018-11-14T08:26:56.797Z,87.70
2018-11-14T08:32:00.035Z,86.70
2018-11-14T08:37:03.271Z,86.10
2018-11-14T08:42:06.508Z,85.00
2018-11-14T08:47:09.724Z,84.70
2018-11-14T08:52:12.975Z,84.80
2018-11-14T08:57:16.196Z,83.80
2018-11-14T09:02:19.455Z,82.40
2018-11-14T09:07:22.692Z,80.70
2018-11-14T09:12:25.928Z,78.50
2018-11-14T09:17:29.135Z,77.90
2018-11-14T09:22:32.626Z,76.50
2018-11-14T09:27:35.856Z,76.70
2018-11-14T09:32:39.070Z,76.00
2018-11-14T09:37:42.303Z,76.90
2018-11-14T09:42:45.519Z,76.50
2018-11-14T09:47:48.883Z,77.10
2018-11-14T09:52:54.340Z,77.50
2018-11-14T09:57:57.571Z,77.20
2018-11-14T10:03:08.627Z,76.90
2018-11-14T10:08:11.856Z,77.40
2018-11-14T10:13:15.047Z,75.80
2018-11-14T10:18:18.291Z,74.70
2018-11-14T10:23:21.471Z,74.80
2018-11-14T10:28:24.715Z,77.00
2018-11-14T10:33:27.927Z,77.80
2018-11-14T10:38:31.142Z,77.90
2018-11-14T10:43:34.445Z,77.30
2018-11-14T10:48:37.663Z,78.20
2018-11-14T10:53:40.867Z,78.40
2018-11-14T10:58:44.086Z,78.40
2018-11-14T11:03:52.635Z,76.50
2018-11-14T11:09:01.208Z,79.00
2018-11-14T11:14:09.823Z,80.00
2018-11-14T11:19:13.707Z,79.70
2018-11-14T11:24:18.231Z,79.70
2018-11-14T11:29:21.463Z,80.60
2018-11-14T11:34:24.667Z,82.00
2018-11-14T11:39:27.897Z,82.60
2018-11-14T11:44:31.196Z,83.10
2018-11-14T11:49:34.415Z,82.60
2018-11-14T11:54:37.623Z,82.70
2018-11-14T11:59:40.893Z,83.40
2018-11-14T12:04:43.995Z,82.80
2018-11-14T12:09:47.223Z,84.30
2018-11-14T12:14:50.427Z,84.10
2018-11-14T12:19:53.642Z,84.40
2018-11-14T12:24:56.872Z,84.70
2018-11-14T12:30:00.197Z,85.30
2018-11-14T12:35:03.302Z,85.30
2018-11-14T12:40:07.263Z,85.10
2018-11-14T12:45:12.337Z,84.70
2018-11-14T12:50:15.451Z,84.70
2018-11-14T12:55:19.165Z,84.50
2018-11-14T13:00:22.599Z,84.60
2018-11-14T13:05:25.843Z,84.40
2018-11-14T13:10:29.054Z,84.30
2018-11-14T13:15:32.259Z,84.90
2018-11-14T13:20:35.463Z,84.90
2018-11-14T13:25:38.647Z,84.60
2018-11-14T13:30:41.879Z,84.40
2018-11-14T13:35:45.487Z,85.80
2018-11-14T13:40:48.715Z,85.60
2018-11-14T13:45:51.923Z,86.00
2018-11-14T13:50:55.304Z,86.00
2018-11-14T13:55:58.321Z,86.30
2018-11-14T14:01:01.534Z,86.10
2018-11-14T14:06:04.911Z,86.00
2018-11-14T14:11:08.127Z,86.50
2018-11-14T14:16:11.335Z,86.90
2018-11-14T14:21:14.508Z,86.50
2018-11-14T14:26:17.722Z,86.90
2018-11-14T14:31:20.920Z,87.20
2018-11-14T14:36:24.123Z,87.40
2018-11-14T14:41:27.312Z,87.30
2018-11-14T14:46:30.630Z,87.30
2018-11-14T14:51:33.847Z,87.80
2018-11-14T14:56:37.045Z,87.70
2018-11-14T15:01:40.268Z,88.00
2018-11-14T15:06:43.475Z,88.80
2018-11-14T15:11:46.678Z,88.80
2018-11-14T15:16:49.887Z,88.90
2018-11-14T15:21:53.083Z,89.20
2018-11-14T15:26:56.319Z,90.00
2018-11-14T15:31:59.522Z,90.10
2018-11-14T15:37:03.595Z,91.30
2018-11-14T15:42:06.960Z,93.00
2018-11-14T15:47:10.159Z,92.70
2018-11-14T15:52:13.379Z,92.70
2018-11-14T15:57:16.598Z,93.50
2018-11-14T16:02:20.607Z,95.40
2018-11-14T16:07:23.873Z,97.50
2018-11-14T16:12:27.380Z,97.50
2018-11-14T16:17:30.683Z,97.50
2018-11-14T16:22:33.983Z,97.50
2018-11-14T16:27:37.199Z,97.50
2018-11-14T16:32:40.772Z,97.50
2018-11-14T16:37:44.291Z,97.50
2018-11-14T16:42:48.038Z,97.50
2018-11-14T16:47:51.402Z,97.50
2018-11-14T16:52:54.764Z,97.50
2018-11-14T16:57:58.251Z,97.50
2018-11-14T17:03:01.519Z,97.50
2018-11-14T17:08:04.977Z,97.50
2018-11-14T17:13:08.180Z,97.50
2018-11-14T17:18:11.473Z,97.50
2018-11-14T17:23:14.794Z,97.50
2018-11-14T17:28:19.228Z,97.50
2018-11-14T17:33:22.569Z,97.50
2018-11-14T17:38:25.731Z,97.50
2018-11-14T17:43:28.933Z,97.50
2018-11-14T17:48:32.143Z,97.50
2018-11-14T17:53:35.342Z,97.50
2018-11-14T17:58:38.539Z,97.50
2018-11-14T18:03:41.755Z,97.50
2018-11-14T18:08:45.131Z,97.50
2018-11-14T18:13:48.372Z,97.50
2018-11-14T18:18:51.628Z,97.50
2018-11-14T18:23:54.955Z,97.50
2018-11-14T18:28:58.182Z,97.50
2018-11-14T18:34:01.427Z,97.50
2018-11-14T18:39:09.236Z,97.50
2018-11-14T18:44:12.428Z,97.50
2018-11-14T18:49:15.635Z,97.50
2018-11-14T18:54:18.842Z,97.50
2018-11-14T18:59:22.109Z,97.50
2018-11-14T19:04:25.339Z,97.50
2018-11-14T19:09:28.583Z,97.50
2018-11-14T19:14:31.777Z,97.50
2018-11-14T19:19:34.975Z,97.50
2018-11-14T19:24:38.306Z,97.50
2018-11-14T19:29:41.438Z,97.50
2018-11-14T19:34:44.635Z,97.50
2018-11-14T19:39:47.854Z,97.50
2018-11-14T19:44:51.035Z,97.50
2018-11-14T19:49:54.235Z,97.50
2018-11-14T19:54:57.433Z,97.50
2018-11-14T20:00:00.879Z,97.50
2018-11-14T20:05:04.295Z,97.50
2018-11-14T20:10:10.153Z,97.50
2018-11-14T20:15:14.601Z,97.50
2018-11-14T20:20:19.331Z,97.50
2018-11-14T20:25:22.551Z,97.50
2018-11-14T20:30:27.129Z,97.50
2018-11-14T20:35:30.278Z,97.50
2018-11-14T20:40:33.503Z,97.50
2018-11-14T20:45:36.738Z,97.50
2018-11-14T20:50:39.943Z,97.50
2018-11-14T20:55:43.195Z,97.50
2018-11-14T21:00:46.399Z,97.50
2018-11-14T21:05:49.782Z,97.50
2018-11-14T21:10:53.019Z,97.50
2018-11-14T21:15:56.218Z,97.50
2018-11-14T21:20:59.428Z,97.50
2018-11-14T21:26:02.648Z,97.50
2018-11-14T21:31:05.884Z,97.50
2018-11-14T21:36:09.205Z,97.50
2018-11-14T21:41:12.407Z,97.50
2018-11-14T21:46:15.651Z,97.50
2018-11-14T21:51:18.868Z,97.50
2018-11-14T21:56:22.083Z,97.50
2018-11-14T22:01:25.291Z,97.50
2018-11-14T22:06:28.490Z,97.50
2018-11-14T22:11:31.704Z,97.50
2018-11-14T22:16:34.915Z,97.50
2018-11-14T22:21:38.100Z,97.50
2018-11-14T22:26:41.299Z,97.50
2018-11-14T22:31:44.491Z,97.50
2018-11-14T22:36:47.793Z,97.50
2018-11-14T22:41:51.011Z,97.50
2018-11-14T22:46:54.583Z,97.50
2018-11-14T22:51:57.815Z,97.50
2018-11-14T22:57:01.023Z,97.50
2018-11-14T23:02:04.519Z,97.50
2018-11-14T23:07:07.751Z,97.50
2018-11-14T23:12:10.963Z,97.50
2018-11-14T23:17:14.287Z,97.50
2018-11-14T23:22:17.515Z,97.50
2018-11-14T23:27:20.707Z,97.50
2018-11-14T23:32:23.923Z,97.50
2018-11-14T23:37:27.139Z,97.50
2018-11-14T23:42:30.370Z,97.50
2018-11-14T23:47:33.609Z,97.50
2018-11-14T23:52:36.843Z,97.50
2018-11-14T23:57:40.439Z,97.50
